createdAt,value
2024-01-16T00:04:32.484Z,8.44
2024-01-16T00:09:38.365Z,8.68
2024-01-16T00:14:41.169Z,8.59
2024-01-16T00:19:43.812Z,8.37
2024-01-16T00:24:46.093Z,8.19
2024-01-16T00:29:48.501Z,8.29
2024-01-16T00:34:50.912Z,8.17
2024-01-16T00:39:53.435Z,8.51
2024-01-16T00:44:55.766Z,8.18
2024-01-16T00:49:58.046Z,7.92
2024-01-16T00:55:00.754Z,8.02
2024-01-16T01:00:03.123Z,7.82
2024-01-16T01:05:05.804Z,7.76
2024-01-16T01:10:08.669Z,8.06
2024-01-16T01:15:11.982Z,7.71
2024-01-16T01:20:14.533Z,7.33
2024-01-16T01:25:17.207Z,7.48
2024-01-16T01:30:19.756Z,7.61
2024-01-16T01:35:22.177Z,8.13
2024-01-16T01:40:24.429Z,7.88
2024-01-16T01:45:26.883Z,7.65
2024-01-16T01:50:29.380Z,7.93
2024-01-16T01:55:32.209Z,7.72
2024-01-16T02:00:35.271Z,7.68
2024-01-16T02:05:40.432Z,7.80
2024-01-16T02:10:47.436Z,7.96
2024-01-16T02:15:49.585Z,8.14
2024-01-16T02:20:52.071Z,8.03
2024-01-16T02:25:55.161Z,7.91
2024-01-16T02:30:58.077Z,8.04
2024-01-16T02:36:00.271Z,8.21
2024-01-16T02:41:02.517Z,8.06
2024-01-16T02:46:05.183Z,7.89
2024-01-16T02:51:07.357Z,7.82
2024-01-16T02:56:10.318Z,7.69
2024-01-16T03:01:12.919Z,8.01
2024-01-16T03:06:26.158Z,8.01
2024-01-16T03:11:30.109Z,8.03
2024-01-16T03:16:33.686Z,7.90
2024-01-16T03:21:35.912Z,7.69
2024-01-16T03:26:42.083Z,7.80
2024-01-16T03:31:44.488Z,7.91
2024-01-16T03:36:46.658Z,7.73
2024-01-16T03:41:48.845Z,7.51
2024-01-16T03:46:51.147Z,7.40
2024-01-16T03:51:53.485Z,7.50
2024-01-16T03:56:56.066Z,7.11
2024-01-16T04:01:59.006Z,6.92
2024-01-16T04:07:01.295Z,7.34
2024-01-16T04:12:04.154Z,7.13
2024-01-16T04:17:07.426Z,7.15
2024-01-16T04:22:10.633Z,7.07
2024-01-16T04:27:14.018Z,7.09
2024-01-16T04:32:16.230Z,6.48
2024-01-16T04:37:18.562Z,6.41
2024-01-16T04:42:20.864Z,5.90
2024-01-16T04:47:23.937Z,5.66
2024-01-16T04:52:26.304Z,6.04
2024-01-16T04:57:28.640Z,6.05
2024-01-16T05:02:30.871Z,6.59
2024-01-16T05:07:33.201Z,6.83
2024-01-16T05:12:35.401Z,6.73
2024-01-16T05:17:37.733Z,6.51
2024-01-16T05:22:40.545Z,6.82
2024-01-16T05:27:44.796Z,7.13
2024-01-16T05:32:47.323Z,7.01
2024-01-16T05:37:49.657Z,6.76
2024-01-16T05:42:51.895Z,7.02
2024-01-16T05:47:54.202Z,7.41
2024-01-16T05:52:56.423Z,7.78
2024-01-16T05:57:58.728Z,7.85
2024-01-16T06:03:01.168Z,7.90
2024-01-16T06:08:04.358Z,7.70
2024-01-16T06:13:06.560Z,7.36
2024-01-16T06:18:10.415Z,7.34
2024-01-16T06:23:12.689Z,7.35
2024-01-16T06:28:14.799Z,6.97
2024-01-16T06:33:17.058Z,7.11
2024-01-16T06:38:19.933Z,7.30
2024-01-16T06:43:22.179Z,7.12
2024-01-16T06:48:24.962Z,7.10
2024-01-16T06:53:27.426Z,7.63
2024-01-16T06:58:29.707Z,7.56
2024-01-16T07:03:31.968Z,7.61
2024-01-16T07:08:34.526Z,7.76
2024-01-16T07:13:36.778Z,7.99
2024-01-16T07:18:40.315Z,8.16
2024-01-16T07:23:42.866Z,8.19
2024-01-16T07:28:45.410Z,8.54
2024-01-16T07:33:47.744Z,8.27
2024-01-16T07:38:50.047Z,8.29
2024-01-16T07:43:52.281Z,8.40
2024-01-16T07:48:54.571Z,8.52
2024-01-16T07:54:08.120Z,8.70
2024-01-16T07:59:10.381Z,8.74
2024-01-16T08:04:12.622Z,8.69
2024-01-16T08:09:15.575Z,8.71
2024-01-16T08:14:17.726Z,8.91
2024-01-16T08:19:20.361Z,9.05
2024-01-16T08:24:23.110Z,9.28
2024-01-16T08:29:26.047Z,9.20
2024-01-16T08:34:28.445Z,9.41
2024-01-16T08:39:34.522Z,9.61
2024-01-16T08:44:36.720Z,9.85
2024-01-16T08:49:40.046Z,9.99
2024-01-16T08:54:42.330Z,10.24
2024-01-16T08:59:44.478Z,10.29
2024-01-16T09:04:47.133Z,10.47
2024-01-16T09:09:49.322Z,10.62
2024-01-16T09:14:51.609Z,10.85
2024-01-16T09:19:53.795Z,11.11
2024-01-16T09:24:55.932Z,11.25
2024-01-16T09:29:58.206Z,11.38
2024-01-16T09:35:02.553Z,11.44
2024-01-16T09:40:06.612Z,11.46
2024-01-16T09:45:10.734Z,11.78
2024-01-16T09:50:13.693Z,11.90
2024-01-16T09:55:16.493Z,12.07
2024-01-16T10:00:18.990Z,12.24
2024-01-16T10:05:22.432Z,12.30
2024-01-16T10:10:34.358Z,12.50
2024-01-16T10:15:41.176Z,12.76
2024-01-16T10:20:43.350Z,12.87
2024-01-16T10:25:45.478Z,13.00
2024-01-16T10:30:47.755Z,13.11
2024-01-16T10:35:50.114Z,13.12
2024-01-16T10:41:06.872Z,13.32
2024-01-16T10:46:13.617Z,13.50
2024-01-16T10:51:16.740Z,13.63
2024-01-16T10:56:20.731Z,13.64
2024-01-16T11:01:23.344Z,13.77
2024-01-16T11:06:25.959Z,14.03
2024-01-16T11:11:29.103Z,14.22
2024-01-16T11:16:33.985Z,14.32
2024-01-16T11:21:38.578Z,14.48
2024-01-16T11:26:44.626Z,14.75
2024-01-16T11:31:46.865Z,14.89
2024-01-16T11:36:56.360Z,15.05
2024-01-16T11:41:59.395Z,15.15
2024-01-16T11:47:04.222Z,15.48
2024-01-16T11:52:06.662Z,15.56
2024-01-16T11:57:23.774Z,15.53
2024-01-16T12:02:49.270Z,15.77
2024-01-16T12:07:54.274Z,16.04
2024-01-16T12:13:05.569Z,16.13
2024-01-16T12:18:13.671Z,16.24
2024-01-16T12:23:23.428Z,16.38
2024-01-16T12:28:32.188Z,16.55
2024-01-16T12:33:36.055Z,16.72
2024-01-16T12:38:38.388Z,16.86
2024-01-16T12:43:41.194Z,16.80
2024-01-16T12:48:52.859Z,16.66
2024-01-16T12:54:15.628Z,16.61
2024-01-16T12:59:19.375Z,16.72
2024-01-16T13:04:22.956Z,16.74
2024-01-16T13:09:25.137Z,16.56
2024-01-16T13:14:27.856Z,16.66
2024-01-16T13:19:34.910Z,16.79
2024-01-16T13:24:37.522Z,17.00
2024-01-16T13:29:41.765Z,16.94
2024-01-16T13:34:50.213Z,16.78
2024-01-16T13:39:52.396Z,16.78
2024-01-16T13:44:55.857Z,16.66
2024-01-16T13:49:58.243Z,16.67
2024-01-16T13:55:00.761Z,16.51
2024-01-16T14:00:05.016Z,16.42
2024-01-16T14:05:07.416Z,16.29
2024-01-16T14:10:13.702Z,16.18
2024-01-16T14:15:21.169Z,16.13
2024-01-16T14:20:27.754Z,16.14
2024-01-16T14:25:30.823Z,16.07
2024-01-16T14:30:37.528Z,15.79
2024-01-16T14:35:40.127Z,15.73
2024-01-16T14:40:42.304Z,15.69
2024-01-16T14:45:44.534Z,15.53
2024-01-16T14:50:48.703Z,15.49
2024-01-16T14:55:53.305Z,15.50
2024-01-16T15:00:57.159Z,15.45
2024-01-16T15:05:59.451Z,15.42
2024-01-16T15:11:01.773Z,15.33
2024-01-16T15:16:04.300Z,15.20
2024-01-16T15:21:06.520Z,14.91
2024-01-16T15:26:08.781Z,14.82
2024-01-16T15:31:11.130Z,14.60
2024-01-16T15:36:13.341Z,14.52
2024-01-16T15:41:15.645Z,14.44
2024-01-16T15:46:18.047Z,14.28
2024-01-16T15:51:20.416Z,14.18
2024-01-16T15:56:22.828Z,14.05
2024-01-16T16:01:24.982Z,14.05
2024-01-16T16:06:27.262Z,13.95
2024-01-16T16:11:29.720Z,13.79
2024-01-16T16:16:34.896Z,13.73
2024-01-16T16:21:37.411Z,13.60
2024-01-16T16:26:45.096Z,13.58
2024-01-16T16:31:47.416Z,13.59
2024-01-16T16:36:49.608Z,13.41
2024-01-16T16:41:52.432Z,13.23
2024-01-16T16:46:54.706Z,13.28
2024-01-16T16:51:57.650Z,13.25
2024-01-16T16:57:00.000Z,13.14
2024-01-16T17:02:02.247Z,13.16
2024-01-16T17:07:04.965Z,12.97
2024-01-16T17:12:07.880Z,13.00
2024-01-16T17:17:11.100Z,12.92
2024-01-16T17:22:13.268Z,13.04
2024-01-16T17:27:15.469Z,12.89
2024-01-16T17:32:19.760Z,12.83
2024-01-16T17:37:21.961Z,12.67
2024-01-16T17:42:24.382Z,12.61
2024-01-16T17:47:27.355Z,12.58
2024-01-16T17:52:30.597Z,12.51
2024-01-16T17:57:32.960Z,12.39
2024-01-16T18:02:35.195Z,12.33
2024-01-16T18:07:39.050Z,12.13
2024-01-16T18:12:41.926Z,12.31
2024-01-16T18:17:46.360Z,12.19
2024-01-16T18:22:57.272Z,12.15
2024-01-16T18:28:00.868Z,12.01
2024-01-16T18:33:04.481Z,11.92
2024-01-16T18:38:09.010Z,11.84
2024-01-16T18:48:31.154Z,11.87
2024-01-16T18:53:33.469Z,11.83
2024-01-16T18:58:35.598Z,11.78
2024-01-16T19:03:37.836Z,11.70
2024-01-16T19:08:44.046Z,11.78
2024-01-16T19:13:46.395Z,11.75
2024-01-16T19:18:48.671Z,11.63
2024-01-16T19:23:51.660Z,11.56
2024-01-16T19:28:54.182Z,11.39
2024-01-16T19:33:56.606Z,11.39
2024-01-16T19:38:59.550Z,11.40
2024-01-16T19:44:02.116Z,11.30
2024-01-16T19:49:06.810Z,11.22
2024-01-16T19:54:09.613Z,11.12
2024-01-16T19:59:12.003Z,11.15
2024-01-16T20:04:14.238Z,11.26
2024-01-16T20:09:20.248Z,11.17
2024-01-16T20:14:22.824Z,11.16
2024-01-16T20:19:25.037Z,11.00
2024-01-16T20:24:30.508Z,10.98
2024-01-16T20:29:32.664Z,10.96
2024-01-16T20:34:35.646Z,10.86
2024-01-16T20:39:37.813Z,10.87
2024-01-16T20:44:40.096Z,10.77
2024-01-16T20:49:42.432Z,10.66
2024-01-16T20:54:44.660Z,10.78
2024-01-16T20:59:47.366Z,10.73
2024-01-16T21:04:49.614Z,10.64
2024-01-16T21:09:51.829Z,10.68
2024-01-16T21:14:53.988Z,10.53
2024-01-16T21:19:56.216Z,10.56
2024-01-16T21:24:58.455Z,10.66
2024-01-16T21:30:00.786Z,10.61
2024-01-16T21:35:03.069Z,10.50
2024-01-16T21:40:06.800Z,10.42
2024-01-16T21:45:09.297Z,10.34
2024-01-16T21:50:13.495Z,10.45
2024-01-16T21:55:16.151Z,10.46
2024-01-16T22:00:19.300Z,10.49
2024-01-16T22:05:21.859Z,10.50
2024-01-16T22:10:24.735Z,10.51
2024-01-16T22:15:27.276Z,10.52
2024-01-16T22:20:33.691Z,10.53
2024-01-16T22:25:36.024Z,10.58
2024-01-16T22:30:38.300Z,10.49
2024-01-16T22:35:40.508Z,10.38
2024-01-16T22:40:42.671Z,10.39
2024-01-16T22:45:46.674Z,10.44
2024-01-16T22:50:51.098Z,10.43
2024-01-16T22:55:53.340Z,10.35
2024-01-16T23:00:55.600Z,10.31
2024-01-16T23:05:58.251Z,10.30
2024-01-16T23:11:01.320Z,10.36
2024-01-16T23:16:04.115Z,10.42
2024-01-16T23:21:07.023Z,10.36
2024-01-16T23:26:11.473Z,10.26
2024-01-16T23:31:14.462Z,10.21
2024-01-16T23:36:17.708Z,10.14
2024-01-16T23:41:20.738Z,10.21
2024-01-16T23:46:22.891Z,10.12
2024-01-16T23:51:25.388Z,10.02
2024-01-16T23:56:27.635Z,10.04
